Time;durP1;ratioP1;P1;durP2;ratioP2;P2;SDS_P1;SDS_P2;PMS_P1;PMS_P2;Temp;Humidity;BMP_temperature;BMP_pressure;BME280_temperature;BME280_humidity;BME280_pressure;Samples;Min_cycle;Max_cycle;Signal;HPM_P1;HPM_P2
2022/08/01 00:00:13;;;;;;;0.80;0.50;;;25.30;41.50;;;;;;5086072;28;20395;-82
2022/08/01 00:02:40;;;;;;;1.00;0.50;;;25.30;41.50;;;;;;5075398;28;20403;-81
2022/08/01 00:05:08;;;;;;;1.13;0.50;;;25.30;41.50;;;;;;5076625;28;20445;-81
2022/08/01 00:07:36;;;;;;;1.13;0.50;;;25.30;41.90;;;;;;5069971;28;20442;-81
2022/08/01 00:10:05;;;;;;;0.68;0.50;;;25.30;42.10;;;;;;5073903;28;20919;-84
2022/08/01 00:12:32;;;;;;;1.20;0.55;;;25.20;42.10;;;;;;5064542;28;20414;-83
2022/08/01 00:14:59;;;;;;;1.00;0.60;;;25.10;42.10;;;;;;5080084;28;20394;-84
2022/08/01 00:17:26;;;;;;;1.08;0.60;;;25.10;42.20;;;;;;5071203;28;20398;-82
2022/08/01 00:19:53;;;;;;;1.10;0.60;;;25.10;42.10;;;;;;5080534;28;20801;-85
2022/08/01 00:22:20;;;;;;;0.60;0.60;;;25.10;42.20;;;;;;5079147;28;20395;-81
2022/08/01 00:24:47;;;;;;;0.90;0.70;;;25.10;42.40;;;;;;5072833;28;20426;-81
2022/08/01 00:27:13;;;;;;;1.20;0.52;;;25.10;42.10;;;;;;5079544;28;20419;-84
2022/08/01 00:29:40;;;;;;;1.83;0.60;;;25.10;42.20;;;;;;5080694;28;20410;-84
2022/08/01 00:32:30;;;;;;;1.20;0.50;;;25.00;41.90;;;;;;5083366;28;20849;-83
2022/08/01 00:34:57;;;;;;;0.75;0.50;;;25.00;42.10;;;;;;5084002;28;20399;-85
2022/08/01 00:37:24;;;;;;;1.65;0.55;;;25.00;42.00;;;;;;5085403;28;20788;-84
2022/08/01 00:39:51;;;;;;;0.93;0.55;;;25.00;41.80;;;;;;5078370;28;20499;-81
2022/08/01 00:42:18;;;;;;;1.10;0.80;;;25.10;42.20;;;;;;5067986;28;20401;-84
2022/08/01 00:44:45;;;;;;;2.50;1.30;;;25.10;42.00;;;;;;5075054;28;20411;-80
2022/08/01 00:47:12;;;;;;;1.73;0.52;;;25.10;41.90;;;;;;5083140;28;20464;-81
2022/08/01 00:49:39;;;;;;;0.68;0.45;;;25.00;41.80;;;;;;5075150;28;20532;-83
2022/08/01 00:52:07;;;;;;;0.98;0.45;;;25.00;42.70;;;;;;5077718;28;21021;-83
2022/08/01 00:54:35;;;;;;;0.57;0.50;;;25.00;41.70;;;;;;5104149;28;20955;-84
2022/08/01 00:57:03;;;;;;;0.65;0.52;;;25.00;41.50;;;;;;5074047;28;20762;-83
2022/08/01 00:59:30;;;;;;;0.80;0.57;;;25.00;41.60;;;;;;5077122;28;20445;-83
2022/08/01 01:01:58;;;;;;;0.90;0.60;;;25.00;42.70;;;;;;5081755;28;20898;-80
2022/08/01 01:04:26;;;;;;;1.05;0.45;;;25.00;41.60;;;;;;5075341;28;20417;-81
2022/08/01 01:07:05;;;;;;;0.65;0.50;;;25.10;41.40;;;;;;5082386;28;20395;-81
2022/08/01 01:09:44;;;;;;;1.60;0.60;;;25.10;41.50;;;;;;5076543;28;20878;-84
2022/08/01 01:12:29;;;;;;;1.00;0.75;;;25.00;41.80;;;;;;5080454;28;20468;-84
2022/08/01 01:15:08;;;;;;;0.77;0.47;;;25.00;41.90;;;;;;5080422;28;20377;-81
2022/08/01 01:17:44;;;;;;;0.95;0.65;;;24.90;42.10;;;;;;5090755;28;20409;-81
2022/08/01 01:20:18;;;;;;;0.70;0.50;;;24.80;43.00;;;;;;5069363;28;20413;-84
2022/08/01 01:23:01;;;;;;;0.73;0.50;;;24.70;43.30;;;;;;5072642;28;20411;-83
2022/08/01 01:25:41;;;;;;;1.00;0.47;;;24.60;43.10;;;;;;5081693;28;20755;-84
2022/08/01 01:28:33;;;;;;;0.60;0.50;;;24.60;42.90;;;;;;5080292;28;20414;-81
2022/08/01 01:31:02;;;;;;;0.70;0.40;;;24.50;43.10;;;;;;5073677;28;20400;-84
2022/08/01 01:33:31;;;;;;;1.00;0.63;;;24.50;43.00;;;;;;5068338;28;20804;-84
2022/08/01 01:36:04;;;;;;;0.47;0.40;;;24.50;43.20;;;;;;5060342;28;20781;-85
2022/08/01 01:38:41;;;;;;;0.73;0.60;;;24.40;43.10;;;;;;5067634;28;20926;-84
2022/08/01 01:41:10;;;;;;;0.90;0.60;;;24.40;43.00;;;;;;5056935;28;20405;-80
2022/08/01 01:43:39;;;;;;;0.80;0.60;;;24.40;43.00;;;;;;5061033;28;20811;-81
2022/08/01 01:46:08;;;;;;;0.90;0.50;;;24.40;42.90;;;;;;5063036;28;20416;-84
2022/08/01 01:48:37;;;;;;;1.30;0.50;;;24.40;42.90;;;;;;5057439;28;20397;-84
2022/08/01 01:51:05;;;;;;;0.80;0.55;;;24.40;42.90;;;;;;5049417;28;20416;-81
2022/08/01 01:53:34;;;;;;;1.17;0.45;;;24.40;42.90;;;;;;5060527;28;20404;-81
2022/08/01 01:56:02;;;;;;;0.70;0.50;;;24.40;42.90;;;;;;5054206;28;20746;-81
2022/08/01 01:58:32;;;;;;;0.93;0.70;;;24.40;43.00;;;;;;5054766;28;20408;-84
2022/08/01 02:01:01;;;;;;;1.10;0.60;;;24.30;42.80;;;;;;5051047;28;20398;-85
2022/08/01 02:03:31;;;;;;;1.50;0.50;;;24.30;43.00;;;;;;5057811;28;20388;-84
2022/08/01 02:05:59;;;;;;;1.10;0.70;;;24.30;42.60;;;;;;5060629;28;21070;-85
2022/08/01 02:08:28;;;;;;;0.80;0.50;;;24.30;42.70;;;;;;5062896;28;20432;-84
2022/08/01 02:13:47;;;;;;;1.65;0.50;;;24.30;43.40;;;;;;5059798;28;20466;-84
2022/08/01 02:16:16;;;;;;;1.00;0.60;;;24.30;42.90;;;;;;5058353;28;20407;-81
2022/08/01 02:18:43;;;;;;;1.17;0.60;;;24.30;42.90;;;;;;5066117;28;20403;-84
2022/08/01 02:21:16;;;;;;;0.80;0.57;;;24.30;42.80;;;;;;5058454;28;20474;-81
2022/08/01 02:23:44;;;;;;;0.70;0.60;;;24.30;42.80;;;;;;5059310;28;20820;-80
2022/08/01 02:26:15;;;;;;;1.20;0.60;;;24.30;42.50;;;;;;5057695;28;20897;-84
2022/08/01 02:28:59;;;;;;;1.20;0.50;;;24.40;42.10;;;;;;5046907;28;20405;-84
2022/08/01 02:31:28;;;;;;;1.17;0.65;;;24.40;42.10;;;;;;5058922;28;20842;-80
2022/08/01 02:34:05;;;;;;;1.10;0.70;;;24.50;41.90;;;;;;5057813;28;20404;-84
2022/08/01 02:36:36;;;;;;;1.02;0.52;;;24.50;41.80;;;;;;5062856;28;20473;-81
2022/08/01 02:39:13;;;;;;;1.20;0.50;;;24.60;41.30;;;;;;5056701;28;20463;-84
2022/08/01 02:41:47;;;;;;;0.93;0.50;;;24.60;41.30;;;;;;5060019;28;20408;-82
2022/08/01 02:44:38;;;;;;;1.35;0.52;;;24.70;41.00;;;;;;5054170;28;20487;-84
2022/08/01 02:47:06;;;;;;;0.70;0.50;;;24.70;41.00;;;;;;5048947;28;20513;-84
2022/08/01 02:49:54;;;;;;;1.00;0.57;;;24.80;40.70;;;;;;5060681;28;20482;-83
2022/08/01 02:52:24;;;;;;;1.45;0.50;;;24.80;40.50;;;;;;5078363;28;20399;-81
2022/08/01 02:54:55;;;;;;;1.20;0.50;;;24.80;40.40;;;;;;5073168;28;20403;-81
2022/08/01 02:57:24;;;;;;;1.40;0.63;;;24.80;40.70;;;;;;5059274;28;20400;-81
2022/08/01 03:00:06;;;;;;;0.73;0.55;;;24.80;40.90;;;;;;5053445;28;20809;-81
2022/08/01 03:02:35;;;;;;;0.70;0.40;;;24.70;41.10;;;;;;5048479;28;20442;-82
2022/08/01 03:05:02;;;;;;;1.90;0.70;;;24.70;41.10;;;;;;5067718;28;20409;-83
2022/08/01 03:07:30;;;;;;;1.23;0.50;;;24.60;41.30;;;;;;5071082;28;20413;-81
2022/08/01 03:10:05;;;;;;;1.00;0.50;;;24.60;41.50;;;;;;5073531;28;20482;-81
2022/08/01 03:12:34;;;;;;;0.52;0.50;;;24.50;41.70;;;;;;5069839;28;20458;-81
2022/08/01 03:15:03;;;;;;;1.60;0.57;;;24.40;41.90;;;;;;5071749;28;20402;-82
2022/08/01 03:17:31;;;;;;;1.13;0.47;;;24.40;41.80;;;;;;5099408;28;20407;-81
2022/08/01 03:20:02;;;;;;;0.65;0.52;;;24.30;42.00;;;;;;5063634;28;20408;-82
2022/08/01 03:22:31;;;;;;;1.00;0.50;;;24.30;42.00;;;;;;5095029;28;20392;-85
2022/08/01 03:24:59;;;;;;;0.70;0.70;;;24.30;42.20;;;;;;5097569;28;20487;-81
2022/08/01 03:27:27;;;;;;;0.43;0.40;;;24.20;42.20;;;;;;5072087;28;20397;-83
2022/08/01 03:29:57;;;;;;;1.27;0.50;;;24.20;42.40;;;;;;5103693;28;20825;-85
2022/08/01 03:32:27;;;;;;;1.20;0.50;;;24.20;42.40;;;;;;5056679;28;20471;-81
2022/08/01 03:34:54;;;;;;;0.70;0.60;;;24.20;42.20;;;;;;5062052;28;20408;-81
2022/08/01 03:37:27;;;;;;;0.70;0.50;;;24.20;42.40;;;;;;5059143;28;20392;-82
2022/08/01 03:40:04;;;;;;;0.60;0.50;;;24.20;42.30;;;;;;5058817;28;20416;-81
2022/08/01 03:42:36;;;;;;;0.50;0.50;;;24.10;42.20;;;;;;5063952;28;20447;-84
2022/08/01 03:45:09;;;;;;;0.90;0.68;;;24.10;42.40;;;;;;5057909;28;20478;-85
2022/08/01 03:47:43;;;;;;;0.52;0.40;;;24.10;42.40;;;;;;5054500;28;20487;-84
2022/08/01 03:50:13;;;;;;;0.70;0.60;;;24.00;43.60;;;;;;5061997;28;20417;-84
2022/08/01 03:52:43;;;;;;;0.70;0.50;;;24.00;42.70;;;;;;5057984;28;20466;-84
2022/08/01 03:55:13;;;;;;;1.42;0.50;;;24.00;43.00;;;;;;5059221;28;20746;-84
2022/08/01 03:57:40;;;;;;;1.15;0.60;;;23.90;43.00;;;;;;5051907;28;20413;-83
2022/08/01 04:00:08;;;;;;;1.27;0.70;;;23.90;43.10;;;;;;5063985;28;20484;-84
2022/08/01 04:02:37;;;;;;;2.47;0.70;;;23.90;43.00;;;;;;5053738;28;20399;-81
2022/08/01 04:05:05;;;;;;;0.90;0.60;;;23.80;43.00;;;;;;5062988;28;20396;-85
2022/08/01 04:07:35;;;;;;;0.98;0.50;;;23.80;43.10;;;;;;5058591;28;20428;-81
2022/08/01 04:10:04;;;;;;;1.20;0.60;;;23.80;43.00;;;;;;5053123;28;20400;-84
2022/08/01 04:12:32;;;;;;;0.80;0.60;;;23.80;43.10;;;;;;5052232;28;20428;-81
2022/08/01 04:14:59;;;;;;;0.90;0.60;;;23.80;43.30;;;;;;5060318;28;20932;-81
2022/08/01 04:17:26;;;;;;;0.80;0.50;;;23.80;43.50;;;;;;5062262;28;20381;-83
2022/08/01 04:19:53;;;;;;;0.82;0.60;;;23.70;43.30;;;;;;5058810;28;20815;-83
2022/08/01 04:22:20;;;;;;;1.40;0.68;;;23.70;43.60;;;;;;5057579;28;20412;-81
2022/08/01 04:24:51;;;;;;;2.00;0.70;;;23.70;43.60;;;;;;5062247;28;20414;-81
2022/08/01 04:27:29;;;;;;;1.33;0.73;;;23.70;43.30;;;;;;5070639;28;20844;-83
2022/08/01 04:30:37;;;;;;;1.20;0.60;;;23.70;43.50;;;;;;5056203;28;20491;-80
2022/08/01 04:33:07;;;;;;;1.15;0.63;;;23.70;44.30;;;;;;5067416;28;20413;-84
2022/08/01 04:35:36;;;;;;;1.00;0.60;;;23.80;43.40;;;;;;5052000;28;20835;-81
2022/08/01 04:38:28;;;;;;;0.98;0.70;;;23.80;43.30;;;;;;5046895;28;20412;-84
2022/08/01 04:40:56;;;;;;;1.30;0.60;;;23.80;44.20;;;;;;5051080;28;20412;-80
2022/08/01 04:43:23;;;;;;;1.85;0.60;;;23.80;43.00;;;;;;5056103;28;20421;-84
2022/08/01 04:45:51;;;;;;;0.70;0.70;;;23.80;43.00;;;;;;5069219;28;20415;-81
2022/08/01 04:48:19;;;;;;;0.65;0.60;;;23.90;43.20;;;;;;5076226;28;20402;-81
2022/08/01 04:50:49;;;;;;;0.63;0.50;;;23.90;43.10;;;;;;5052609;28;21124;-84
2022/08/01 04:53:17;;;;;;;2.00;0.70;;;23.90;43.00;;;;;;5046024;28;20446;-84
2022/08/01 04:55:45;;;;;;;0.90;0.60;;;23.80;43.10;;;;;;5062521;28;20465;-81
2022/08/01 04:58:16;;;;;;;0.85;0.70;;;23.90;43.10;;;;;;5046471;28;20471;-84
2022/08/01 05:00:45;;;;;;;0.80;0.57;;;23.90;43.10;;;;;;5071520;28;20491;-84
2022/08/01 05:03:12;;;;;;;1.77;0.70;;;23.90;43.40;;;;;;5069837;28;20410;-80
2022/08/01 05:05:39;;;;;;;1.67;0.90;;;23.90;42.70;;;;;;5060368;28;20421;-81
2022/08/01 05:08:06;;;;;;;0.52;0.50;;;23.90;43.10;;;;;;5051915;28;20420;-81
2022/08/01 05:10:33;;;;;;;1.50;0.60;;;24.00;43.00;;;;;;5055178;28;20758;-84
2022/08/01 05:13:00;;;;;;;0.83;0.70;;;24.00;42.60;;;;;;5048876;28;20420;-84
2022/08/01 05:15:27;;;;;;;0.70;0.55;;;24.00;42.70;;;;;;5053266;28;20501;-83
2022/08/01 05:17:56;;;;;;;2.33;0.70;;;24.10;42.70;;;;;;5059074;28;20411;-81
2022/08/01 05:20:23;;;;;;;2.25;0.80;;;24.10;42.70;;;;;;5050721;28;20405;-80
2022/08/01 05:22:50;;;;;;;1.88;0.70;;;24.10;42.50;;;;;;5062942;28;20408;-83
2022/08/01 05:25:17;;;;;;;1.20;0.53;;;24.10;42.40;;;;;;5054688;28;20436;-82
2022/08/01 05:28:04;;;;;;;0.50;0.50;;;24.20;42.80;;;;;;5056540;28;20931;-83
2022/08/01 05:30:31;;;;;;;1.98;0.73;;;24.20;42.70;;;;;;5067134;28;20391;-82
2022/08/01 05:32:58;;;;;;;0.80;0.50;;;24.20;42.70;;;;;;5061463;28;20408;-82
2022/08/01 05:35:25;;;;;;;0.85;0.50;;;24.20;42.60;;;;;;5068330;28;20387;-83
2022/08/01 05:38:12;;;;;;;0.85;0.65;;;24.20;42.60;;;;;;5051948;28;20487;-83
2022/08/01 05:40:40;;;;;;;1.10;0.60;;;24.30;42.10;;;;;;5057986;28;20446;-83
2022/08/01 05:43:07;;;;;;;0.93;0.60;;;24.30;42.80;;;;;;5062372;28;20430;-83
2022/08/01 05:45:34;;;;;;;2.30;0.90;;;24.30;42.70;;;;;;5063221;28;20443;-84
2022/08/01 05:48:01;;;;;;;1.17;0.73;;;24.40;42.70;;;;;;5049550;28;20776;-82
2022/08/01 05:50:28;;;;;;;0.82;0.70;;;24.40;42.50;;;;;;5061695;28;21544;-83
2022/08/01 05:52:55;;;;;;;1.40;0.70;;;24.40;42.60;;;;;;5055589;28;20973;-81
2022/08/01 05:55:22;;;;;;;1.00;0.70;;;24.50;42.20;;;;;;5062011;28;20404;-84
2022/08/01 05:57:48;;;;;;;2.45;0.75;;;24.50;41.50;;;;;;5055181;28;20429;-82
2022/08/01 06:00:15;;;;;;;1.60;0.60;;;24.60;41.30;;;;;;5055824;28;20430;-84
2022/08/01 06:02:43;;;;;;;1.80;0.90;;;24.70;41.40;;;;;;5058161;28;20404;-84
2022/08/01 06:05:10;;;;;;;2.13;0.60;;;24.70;41.70;;;;;;5054454;28;20413;-81
2022/08/01 06:07:39;;;;;;;1.20;0.63;;;24.80;41.30;;;;;;5086072;28;20424;-82
2022/08/01 06:10:07;;;;;;;1.38;0.70;;;24.80;41.40;;;;;;5055456;28;20451;-83
2022/08/01 06:12:35;;;;;;;2.47;0.73;;;24.90;41.60;;;;;;5064848;28;20409;-82
2022/08/01 06:15:03;;;;;;;2.60;0.80;;;24.90;41.40;;;;;;5061404;28;20766;-83
2022/08/01 06:17:30;;;;;;;1.75;0.70;;;24.90;41.60;;;;;;5059932;28;20865;-81
2022/08/01 06:19:57;;;;;;;1.17;0.80;;;24.90;41.90;;;;;;5056609;28;20435;-84
2022/08/01 06:22:24;;;;;;;2.10;0.68;;;25.00;41.70;;;;;;5050735;28;20520;-82
2022/08/01 06:24:51;;;;;;;1.40;0.73;;;25.10;41.40;;;;;;5051101;28;20428;-81
2022/08/01 06:27:18;;;;;;;0.77;0.60;;;25.10;41.50;;;;;;5060424;28;20412;-84
2022/08/01 06:29:48;;;;;;;0.85;0.60;;;25.10;41.70;;;;;;5061681;28;20432;-81
2022/08/01 06:32:22;;;;;;;1.33;0.70;;;25.20;41.70;;;;;;5069847;28;20416;-84
2022/08/01 06:34:53;;;;;;;1.63;0.57;;;25.20;41.90;;;;;;5062111;28;20416;-82
2022/08/01 06:37:19;;;;;;;1.27;0.70;;;25.20;41.90;;;;;;5060937;28;20451;-82
2022/08/01 06:39:46;;;;;;;1.20;0.80;;;25.30;40.90;;;;;;5073039;28;20753;-84
2022/08/01 06:42:14;;;;;;;1.10;0.60;;;25.40;40.90;;;;;;5067406;28;20416;-82
2022/08/01 06:44:41;;;;;;;1.55;0.70;;;25.50;40.20;;;;;;5085099;28;20409;-84
2022/08/01 06:47:08;;;;;;;2.92;0.80;;;25.60;39.60;;;;;;5051288;28;20402;-82
2022/08/01 06:49:35;;;;;;;2.25;0.70;;;25.80;41.00;;;;;;5065229;28;20407;-83
2022/08/01 06:52:03;;;;;;;1.77;0.57;;;25.80;39.50;;;;;;5054631;28;20419;-83
2022/08/01 06:54:31;;;;;;;1.42;0.50;;;25.90;39.40;;;;;;5053844;28;20404;-84
2022/08/01 06:57:06;;;;;;;2.40;0.90;;;25.90;39.30;;;;;;5055353;28;20406;-82
2022/08/01 06:59:33;;;;;;;0.93;0.70;;;26.00;39.60;;;;;;5077071;28;20404;-82
2022/08/01 07:02:03;;;;;;;1.60;0.60;;;26.00;40.00;;;;;;5050599;28;20402;-85
2022/08/01 07:04:32;;;;;;;1.38;0.70;;;26.20;39.70;;;;;;5059084;28;20403;-84
2022/08/01 07:06:59;;;;;;;2.40;0.52;;;26.30;39.10;;;;;;5058556;28;20416;-83
2022/08/01 07:09:26;;;;;;;1.33;0.60;;;26.30;38.60;;;;;;5042085;28;20428;-84
2022/08/01 07:11:53;;;;;;;0.98;0.70;;;26.40;39.40;;;;;;5075526;28;20408;-82
2022/08/01 07:14:21;;;;;;;0.90;0.60;;;26.50;38.50;;;;;;5061383;28;20752;-85
2022/08/01 07:16:49;;;;;;;1.33;0.77;;;26.60;39.40;;;;;;5052012;28;20418;-82
2022/08/01 07:19:16;;;;;;;0.85;0.60;;;26.70;38.30;;;;;;5048047;28;20942;-83
2022/08/01 07:21:44;;;;;;;1.50;0.60;;;26.80;38.50;;;;;;5060084;28;20401;-83
2022/08/01 07:24:15;;;;;;;1.00;0.60;;;26.90;39.00;;;;;;5054957;28;20439;-84
2022/08/01 07:26:48;;;;;;;1.65;0.50;;;27.10;38.50;;;;;;5055105;28;20408;-84
2022/08/01 07:29:24;;;;;;;0.95;0.60;;;27.30;38.00;;;;;;5046084;28;20445;-84
2022/08/01 07:31:56;;;;;;;1.52;0.50;;;27.50;38.20;;;;;;5066191;28;20466;-83
2022/08/01 07:34:24;;;;;;;1.13;0.60;;;27.70;37.90;;;;;;5057938;28;20422;-84
2022/08/01 07:36:52;;;;;;;1.43;0.70;;;27.80;37.70;;;;;;5092965;28;20408;-86
2022/08/01 07:39:19;;;;;;;1.00;0.60;;;28.00;36.40;;;;;;5048140;28;20412;-86
2022/08/01 07:41:47;;;;;;;0.70;0.60;;;28.10;36.60;;;;;;5060297;28;20407;-84
2022/08/01 07:44:34;;;;;;;1.60;0.70;;;28.30;36.60;;;;;;5048075;28;20501;-83
2022/08/01 07:47:00;;;;;;;1.00;0.60;;;28.50;35.90;;;;;;5042065;28;20416;-86
2022/08/01 07:49:27;;;;;;;2.03;0.70;;;28.70;35.60;;;;;;5059154;28;20526;-85
2022/08/01 07:51:55;;;;;;;1.20;0.65;;;28.90;35.80;;;;;;5060523;28;20551;-85
2022/08/01 07:54:31;;;;;;;0.85;0.50;;;29.00;35.70;;;;;;5048958;28;20416;-86
2022/08/01 07:57:01;;;;;;;0.80;0.50;;;29.20;35.60;;;;;;5065571;28;20825;-85
2022/08/01 07:59:28;;;;;;;0.70;0.50;;;29.40;34.90;;;;;;5060785;28;20827;-84
2022/08/01 08:01:55;;;;;;;0.52;0.40;;;29.60;33.70;;;;;;5047517;28;20464;-86
2022/08/01 08:04:22;;;;;;;1.70;0.80;;;29.70;33.30;;;;;;5053703;28;20420;-85
2022/08/01 08:06:49;;;;;;;0.70;0.60;;;29.80;33.80;;;;;;5074022;28;20474;-84
2022/08/01 08:09:16;;;;;;;0.50;0.40;;;30.00;33.30;;;;;;5055388;28;20411;-84
2022/08/01 08:11:44;;;;;;;0.70;0.50;;;30.10;33.30;;;;;;5058573;28;20412;-81
2022/08/01 08:14:14;;;;;;;0.80;0.50;;;30.20;33.00;;;;;;5060292;28;20487;-83
2022/08/01 08:16:42;;;;;;;0.80;0.50;;;30.30;34.30;;;;;;5075691;28;20419;-83
2022/08/01 08:19:09;;;;;;;0.60;0.40;;;30.40;34.60;;;;;;5059740;28;20907;-83
2022/08/01 08:21:37;;;;;;;0.75;0.45;;;30.60;33.60;;;;;;5082152;28;20408;-84
2022/08/01 08:24:20;;;;;;;1.80;0.50;;;30.80;33.80;;;;;;5052666;28;20416;-83
2022/08/01 08:26:59;;;;;;;0.90;0.50;;;31.00;34.40;;;;;;5072437;28;20999;-83
2022/08/01 08:29:29;;;;;;;1.00;0.43;;;31.20;35.50;;;;;;5064526;28;20435;-82
2022/08/01 08:31:57;;;;;;;1.40;0.50;;;31.10;34.90;;;;;;5066688;28;20971;-84
2022/08/01 08:34:25;;;;;;;0.85;0.40;;;31.10;36.60;;;;;;5058957;28;20435;-82
2022/08/01 08:36:54;;;;;;;1.38;0.40;;;31.40;34.80;;;;;;5061788;28;20409;-85
2022/08/01 08:39:21;;;;;;;1.20;0.60;;;31.50;33.40;;;;;;5050342;28;20872;-84
2022/08/01 08:41:49;;;;;;;1.25;0.40;;;31.60;34.00;;;;;;5081691;28;20412;-83
2022/08/01 08:44:17;;;;;;;1.70;0.60;;;31.80;34.10;;;;;;5051388;28;20490;-85
2022/08/01 08:46:47;;;;;;;1.20;0.50;;;31.90;33.00;;;;;;5056032;28;20512;-83
2022/08/01 08:49:20;;;;;;;0.95;0.47;;;32.00;31.40;;;;;;5061774;28;20413;-84
2022/08/01 08:51:49;;;;;;;1.92;0.47;;;32.00;32.00;;;;;;5052127;28;21017;-84
2022/08/01 08:54:21;;;;;;;1.02;0.50;;;32.10;32.20;;;;;;5048289;28;20495;-83
2022/08/01 08:56:58;;;;;;;1.30;0.30;;;32.20;30.60;;;;;;5057682;28;20400;-82
2022/08/01 08:59:26;;;;;;;0.60;0.40;;;32.10;30.30;;;;;;5042139;28;20424;-85
2022/08/01 09:01:53;;;;;;;0.82;0.40;;;32.20;30.80;;;;;;5056978;28;20395;-83
2022/08/01 09:04:23;;;;;;;1.15;0.57;;;32.10;30.80;;;;;;5052116;28;20404;-83
2022/08/01 09:06:54;;;;;;;1.13;0.50;;;32.10;30.80;;;;;;5052544;28;20400;-83
2022/08/01 09:09:21;;;;;;;1.52;0.57;;;32.30;31.80;;;;;;5051218;28;20406;-84
2022/08/01 09:11:48;;;;;;;1.40;0.50;;;32.30;31.40;;;;;;5064643;28;20445;-82
2022/08/01 09:14:26;;;;;;;0.60;0.45;;;32.30;31.40;;;;;;5053004;28;20418;-82
2022/08/01 09:17:10;;;;;;;0.85;0.30;;;32.30;31.10;;;;;;5055185;28;20391;-83
2022/08/01 09:19:47;;;;;;;0.70;0.40;;;32.40;30.90;;;;;;5046016;28;20427;-82
2022/08/01 09:22:18;;;;;;;1.10;0.40;;;32.50;30.20;;;;;;5093099;28;20779;-82
2022/08/01 09:25:05;;;;;;;1.80;0.40;;;32.60;31.40;;;;;;5061210;28;20392;-82
2022/08/01 09:27:33;;;;;;;0.50;0.40;;;32.70;30.60;;;;;;5094305;28;20435;-84
2022/08/01 09:30:14;;;;;;;0.52;0.30;;;32.70;30.80;;;;;;5085629;28;20391;-83
2022/08/01 09:33:00;;;;;;;0.30;0.30;;;32.90;31.00;;;;;;5104569;28;20389;-83
2022/08/01 09:35:36;;;;;;;0.70;0.40;;;32.90;29.20;;;;;;5087678;28;20811;-80
2022/08/01 09:38:20;;;;;;;0.68;0.40;;;33.00;30.60;;;;;;5077739;28;20403;-85
2022/08/01 09:40:58;;;;;;;1.00;0.40;;;33.10;30.00;;;;;;5063427;28;20754;-86
2022/08/01 09:43:29;;;;;;;2.20;0.40;;;33.20;30.40;;;;;;5070374;28;20917;-83
2022/08/01 09:45:58;;;;;;;1.77;0.60;;;33.30;30.60;;;;;;5104845;28;20513;-86
2022/08/01 09:48:27;;;;;;;0.57;0.50;;;33.30;30.00;;;;;;5072491;28;20456;-82
2022/08/01 09:50:58;;;;;;;1.70;0.50;;;33.30;30.70;;;;;;5075589;28;20494;-82
2022/08/01 09:53:48;;;;;;;1.30;0.40;;;33.40;30.90;;;;;;5083773;28;20407;-84
2022/08/01 09:56:19;;;;;;;1.92;0.52;;;33.40;30.60;;;;;;5071859;28;20395;-84
2022/08/01 09:58:50;;;;;;;1.30;0.40;;;33.50;32.60;;;;;;5069500;28;20424;-84
2022/08/01 10:01:24;;;;;;;3.17;0.50;;;33.60;31.80;;;;;;5047993;28;20837;-84
2022/08/01 10:04:10;;;;;;;0.40;0.40;;;33.80;32.60;;;;;;5059893;28;20410;-84
2022/08/01 10:06:39;;;;;;;1.20;0.50;;;33.80;30.80;;;;;;5048411;28;20427;-85
2022/08/01 10:09:08;;;;;;;1.85;0.50;;;33.90;30.60;;;;;;5102508;28;20414;-84
2022/08/01 10:11:38;;;;;;;1.52;0.50;;;33.80;29.90;;;;;;5054452;28;20412;-83
2022/08/01 10:14:06;;;;;;;1.98;0.50;;;33.80;30.40;;;;;;5052649;28;20518;-84
2022/08/01 10:16:36;;;;;;;1.35;0.45;;;33.60;30.40;;;;;;5049601;28;20444;-83
2022/08/01 10:19:07;;;;;;;2.20;0.50;;;33.60;30.90;;;;;;5045251;28;20414;-84
2022/08/01 10:21:44;;;;;;;1.25;0.50;;;33.70;30.30;;;;;;5047195;28;20415;-85
2022/08/01 10:24:26;;;;;;;0.70;0.40;;;33.80;30.90;;;;;;5054210;28;20470;-83
2022/08/01 10:26:59;;;;;;;1.45;0.50;;;34.00;30.00;;;;;;5056263;28;20415;-85
2022/08/01 10:29:41;;;;;;;1.35;0.30;;;34.00;29.70;;;;;;5037872;28;20408;-82
2022/08/01 10:32:28;;;;;;;1.70;0.50;;;34.10;28.60;;;;;;5048299;28;20408;-82
2022/08/01 10:34:56;;;;;;;1.10;0.38;;;34.20;29.40;;;;;;5051980;28;20900;-82
2022/08/01 10:37:24;;;;;;;1.10;0.40;;;34.30;29.40;;;;;;5048545;28;20420;-84
2022/08/01 10:39:54;;;;;;;0.70;0.40;;;34.30;29.50;;;;;;5047285;28;20408;-85
2022/08/01 10:42:45;;;;;;;0.90;0.30;;;34.30;27.60;;;;;;5049985;28;20498;-82
2022/08/01 10:45:14;;;;;;;0.82;0.40;;;34.30;28.80;;;;;;5049199;28;20508;-84
2022/08/01 10:48:14;;;;;;;0.35;0.30;;;34.20;28.10;;;;;;5061256;28;20896;-84
2022/08/01 10:50:49;;;;;;;1.08;0.40;;;34.40;28.30;;;;;;5051665;28;20452;-82
2022/08/01 10:53:24;;;;;;;1.10;0.40;;;34.60;27.90;;;;;;5051171;28;20413;-84
2022/08/01 10:56:10;;;;;;;0.80;0.30;;;34.80;27.80;;;;;;5053558;28;20820;-84
2022/08/01 10:58:42;;;;;;;1.33;0.50;;;34.80;26.80;;;;;;5051063;28;20423;-86
2022/08/01 11:01:22;;;;;;;0.60;0.27;;;35.10;27.60;;;;;;5049733;28;20412;-82
2022/08/01 11:04:00;;;;;;;0.70;0.32;;;35.50;27.10;;;;;;5040982;28;20454;-83
2022/08/01 11:06:49;;;;;;;1.10;0.40;;;35.70;26.10;;;;;;5044641;28;20486;-84
2022/08/01 11:09:27;;;;;;;0.95;0.30;;;35.60;25.20;;;;;;5051091;28;20409;-85
2022/08/01 11:12:08;;;;;;;1.77;0.52;;;35.50;25.80;;;;;;5045001;28;20436;-82
2022/08/01 11:14:58;;;;;;;1.67;0.30;;;35.40;25.80;;;;;;5054887;28;20420;-84
2022/08/01 11:17:43;;;;;;;1.30;0.40;;;35.40;26.90;;;;;;5048653;28;20809;-84
2022/08/01 11:20:14;;;;;;;1.10;0.40;;;35.60;26.80;;;;;;5055541;28;20892;-83
2022/08/01 11:22:59;;;;;;;0.45;0.40;;;35.80;26.00;;;;;;5052593;28;20416;-84
2022/08/01 11:25:37;;;;;;;1.08;0.40;;;35.80;25.80;;;;;;5067822;28;20478;-82
2022/08/01 11:28:25;;;;;;;0.90;0.40;;;35.70;26.30;;;;;;5071066;28;20415;-84
2022/08/01 11:31:07;;;;;;;0.90;0.60;;;35.60;26.40;;;;;;5095165;28;20524;-86
2022/08/01 11:33:42;;;;;;;0.80;0.38;;;35.50;26.10;;;;;;5052928;28;20478;-85
2022/08/01 11:36:21;;;;;;;0.95;0.40;;;35.60;26.30;;;;;;5050107;28;20413;-82
2022/08/01 11:39:08;;;;;;;0.38;0.30;;;35.70;26.30;;;;;;5050651;28;20475;-84
2022/08/01 11:41:40;;;;;;;1.13;0.30;;;36.00;26.40;;;;;;5056921;28;20413;-84
2022/08/01 11:44:13;;;;;;;1.35;0.35;;;36.10;25.90;;;;;;5064866;28;20429;-86
2022/08/01 11:47:09;;;;;;;1.00;0.30;;;36.10;25.80;;;;;;5056068;28;20427;-82
2022/08/01 11:49:45;;;;;;;0.73;0.30;;;35.90;25.30;;;;;;5055489;28;20397;-84
2022/08/01 11:52:32;;;;;;;1.35;0.40;;;35.90;26.90;;;;;;5055827;28;20405;-84
2022/08/01 11:55:03;;;;;;;1.73;0.50;;;36.00;25.80;;;;;;5053728;28;20401;-82
2022/08/01 11:57:34;;;;;;;0.50;0.30;;;36.00;26.60;;;;;;5050016;28;20411;-83
2022/08/01 12:00:14;;;;;;;1.05;0.40;;;36.10;27.40;;;;;;5067517;28;20482;-84
2022/08/01 12:02:55;;;;;;;1.08;0.50;;;36.30;26.50;;;;;;5048771;28;20801;-86
2022/08/01 12:05:26;;;;;;;1.80;0.40;;;36.40;25.60;;;;;;5054162;28;20439;-86
2022/08/01 12:07:54;;;;;;;0.82;0.40;;;36.20;26.90;;;;;;5052393;28;20421;-84
2022/08/01 12:10:25;;;;;;;2.05;0.60;;;36.20;26.30;;;;;;5053663;28;20427;-83
2022/08/01 12:12:55;;;;;;;3.33;0.50;;;36.30;26.60;;;;;;5055715;28;20435;-82
2022/08/01 12:15:28;;;;;;;0.97;0.20;;;36.40;26.40;;;;;;5050493;28;20409;-84
2022/08/01 12:17:57;;;;;;;1.98;0.45;;;36.70;27.00;;;;;;5060199;28;20426;-84
2022/08/01 12:20:31;;;;;;;0.50;0.43;;;36.90;26.10;;;;;;5061326;28;20421;-85
2022/08/01 12:23:01;;;;;;;0.70;0.40;;;36.90;26.00;;;;;;5056782;28;20816;-84
2022/08/01 12:25:29;;;;;;;0.68;0.30;;;37.00;26.30;;;;;;5057512;28;20408;-83
2022/08/01 12:28:01;;;;;;;1.10;0.32;;;37.00;25.70;;;;;;5056981;28;20415;-85
2022/08/01 12:30:30;;;;;;;1.50;0.47;;;36.80;26.10;;;;;;5052787;28;20461;-83
2022/08/01 12:32:58;;;;;;;1.50;0.40;;;36.80;25.70;;;;;;5058036;28;20415;-85
2022/08/01 12:35:27;;;;;;;1.10;0.40;;;36.60;25.30;;;;;;5052602;28;20416;-84
2022/08/01 12:37:59;;;;;;;0.40;0.40;;;36.70;25.70;;;;;;5054205;28;20416;-84
2022/08/01 12:40:28;;;;;;;1.58;0.40;;;36.60;25.70;;;;;;5058900;28;20819;-84
2022/08/01 12:43:06;;;;;;;1.00;0.40;;;36.50;25.80;;;;;;5084373;28;20946;-83
2022/08/01 12:45:42;;;;;;;1.33;0.30;;;36.70;26.20;;;;;;5055232;28;20443;-85
2022/08/01 12:48:24;;;;;;;1.58;0.50;;;36.90;26.10;;;;;;5061341;28;20429;-87
2022/08/01 12:50:52;;;;;;;3.17;0.47;;;37.00;25.80;;;;;;5054809;28;20454;-82
2022/08/01 12:53:20;;;;;;;1.00;0.40;;;36.90;26.00;;;;;;5055920;28;20772;-83
2022/08/01 12:55:53;;;;;;;1.80;0.40;;;36.90;26.60;;;;;;5047199;28;20416;-84
2022/08/01 12:58:33;;;;;;;1.20;0.40;;;36.70;25.80;;;;;;5047055;28;20409;-84
2022/08/01 13:01:06;;;;;;;1.10;0.45;;;36.70;26.30;;;;;;5057516;28;20760;-84
2022/08/01 13:03:33;;;;;;;0.93;0.40;;;36.70;26.50;;;;;;5054270;28;20408;-85
2022/08/01 13:06:01;;;;;;;1.00;0.40;;;36.60;25.60;;;;;;5053717;28;20779;-84
2022/08/01 13:08:32;;;;;;;3.03;0.52;;;36.70;26.30;;;;;;5035607;28;20417;-83
2022/08/01 13:11:13;;;;;;;1.30;0.40;;;36.80;26.50;;;;;;5034986;28;20477;-86
2022/08/01 13:13:43;;;;;;;3.50;0.50;;;36.80;25.80;;;;;;5018888;28;20489;-82